Marquette, NE (68854)

7:13 AM CDT on October 31, 2014 (GMT -0500)
Aurora Municipal | Change Station
CLOSE
Current Station
Airport
Location: Aurora,
Elevation: 1804 ft
Nearby Weather Stations

Elev 1804 ft 40.89 °N, 97.99 °W | Updated 18 minutes ago

Partly Cloudy
Partly Cloudy
27 °F
Feels Like 18 °F
N
8
Wind Variable Wind from North

Today
High -- | Low -- °F
--% Chance of Precip.
Yesterday
High -- | Low -- °F
Precip. -- in
8:01 AM 6:28 PM
First Quarter, 54% visible
Pressure 30.55 in
Visibility 10.0 miles
Clouds Clear
Windchill 18 °F
Dew Point 18 °F
Humidity 69%
Rainfall 0.00 in
Snow Depth Not available.
UV 0 out of 12
Pollen .10 out of 12
Air Quality Not available.
Flu Activity Not available.
METAR KAUH 311155Z AUTO 36007KT 10SM CLR M03/M08 A3055 RMK AO2 T10301079 10026 21030

More Conditions Fewer Conditions

Pressure 30.55 in
Visibility 10.0 miles
Clouds Clear
Windchill 18 °F
Dew Point 18 °F
Humidity 69%
Rainfall 0.00 in
Snow Depth Not available.
UV 0 out of 12
Pollen .10 out of 12
Air Quality Not available.
Flu Activity Not available.
METAR KAUH 311155Z AUTO 36007KT 10SM CLR M03/M08 A3055 RMK AO2 T10301079 10026 21030

More Conditions Fewer Conditions

10-Day Weather Forecast

Almanac

Astronomy

Oct. 31, 2014 Rise Set
Actual Time
Civil Twilight
Nautical Twilight
Astronomical Twilight
Moon
Length of Visible Light
Length of Day
Tomorrow will be .
, % of the Moon is Illuminated

Today's Extremes

State Highs State Lows

Community

WunderPhotos

Upload Photos

1,766,589 photos uploaded!

WunderBlogs® & News

Nearby

Air Quality

  Air Quality AQ Index Pollutant
Not available.

Snow Depth

Station Depth Elevation

Earthquake Activity

City Distance Mag. Time & Date
Minimum magnitude displayed is 2.5.

Coastal Water Temperatures

Place Temperature

Nearby Weather Stations